Argus, California
Current Conditions -  °F | °C
As of 12:56 PM on Friday 31 Oct 2014 (Local Time) from KNID Reporting Station
Broken Clouds Broken Clouds  
Wind Chill: 76°   Ceiling: 25000
Heat Index: 76°   Visibility: 10mi
Dew Point: 39°   Wind: 14mph
Humidity: 26%   Direction: 180°S
Pressure: 29.84"   Gusts: NA
Location:  35.6496°N, 117.375°W
Report Text: KNID 311956Z AUTO 18012KT 10SM BKN250 24/04 A2984 RMK AO2 SLP093 T02440039
Loading
Personal Weather Stations






























Interactive Weather Map
Tropical Storm Tracking
New forecast layout! Learn more

10-Day Weather Forecast

Advertisements
Track Severe Weather on mobile